sensor_id;sensor_type;location;lat;lon;timestamp;P1;durP1;ratioP1;P2;durP2;ratioP2
78116;SDS011;67887;59.082;37.928;2023-04-01T00:01:26;13.45;;;6.18;;
78116;SDS011;67887;59.082;37.928;2023-04-01T00:03:52;13.75;;;6.40;;
78116;SDS011;67887;59.082;37.928;2023-04-01T00:06:20;13.98;;;6.88;;
78116;SDS011;67887;59.082;37.928;2023-04-01T00:08:46;13.75;;;6.00;;
78116;SDS011;67887;59.082;37.928;2023-04-01T00:11:13;12.13;;;6.05;;
78116;SDS011;67887;59.082;37.928;2023-04-01T00:13:40;14.05;;;5.93;;
78116;SDS011;67887;59.082;37.928;2023-04-01T00:16:07;12.43;;;5.22;;
78116;SDS011;67887;59.082;37.928;2023-04-01T00:18:34;12.27;;;5.40;;
78116;SDS011;67887;59.082;37.928;2023-04-01T00:21:00;13.23;;;5.90;;
78116;SDS011;67887;59.082;37.928;2023-04-01T00:23:27;12.35;;;5.45;;
78116;SDS011;67887;59.082;37.928;2023-04-01T00:25:53;12.70;;;5.88;;
78116;SDS011;67887;59.082;37.928;2023-04-01T00:28:20;13.60;;;5.57;;
78116;SDS011;67887;59.082;37.928;2023-04-01T00:30:47;13.45;;;5.47;;
78116;SDS011;67887;59.082;37.928;2023-04-01T00:33:13;11.13;;;5.43;;
78116;SDS011;67887;59.082;37.928;2023-04-01T00:35:40;12.73;;;5.63;;
78116;SDS011;67887;59.082;37.928;2023-04-01T00:38:07;11.93;;;5.35;;
78116;SDS011;67887;59.082;37.928;2023-04-01T00:40:35;12.15;;;5.13;;
78116;SDS011;67887;59.082;37.928;2023-04-01T00:43:09;9.98;;;4.50;;
78116;SDS011;67887;59.082;37.928;2023-04-01T00:45:40;10.55;;;4.50;;
78116;SDS011;67887;59.082;37.928;2023-04-01T00:50:42;11.40;;;4.25;;
78116;SDS011;67887;59.082;37.928;2023-04-01T00:53:11;9.45;;;4.07;;
78116;SDS011;67887;59.082;37.928;2023-04-01T00:55:41;9.57;;;4.40;;
78116;SDS011;67887;59.082;37.928;2023-04-01T00:58:16;10.82;;;4.57;;
78116;SDS011;67887;59.082;37.928;2023-04-01T01:00:46;8.63;;;3.80;;
78116;SDS011;67887;59.082;37.928;2023-04-01T01:03:16;7.65;;;3.88;;
78116;SDS011;67887;59.082;37.928;2023-04-01T01:11:11;9.20;;;4.07;;
78116;SDS011;67887;59.082;37.928;2023-04-01T01:13:42;9.93;;;4.18;;
78116;SDS011;67887;59.082;37.928;2023-04-01T01:16:35;8.57;;;4.20;;
78116;SDS011;67887;59.082;37.928;2023-04-01T01:24:57;7.80;;;3.42;;
78116;SDS011;67887;59.082;37.928;2023-04-01T01:30:47;8.30;;;3.50;;
78116;SDS011;67887;59.082;37.928;2023-04-01T01:33:36;7.47;;;3.22;;
78116;SDS011;67887;59.082;37.928;2023-04-01T01:36:13;7.95;;;3.78;;
78116;SDS011;67887;59.082;37.928;2023-04-01T01:38:41;8.35;;;3.83;;
78116;SDS011;67887;59.082;37.928;2023-04-01T01:41:08;7.13;;;3.20;;
78116;SDS011;67887;59.082;37.928;2023-04-01T01:43:39;11.00;;;3.42;;
78116;SDS011;67887;59.082;37.928;2023-04-01T01:46:09;7.32;;;3.05;;
78116;SDS011;67887;59.082;37.928;2023-04-01T01:48:40;9.10;;;3.47;;
78116;SDS011;67887;59.082;37.928;2023-04-01T01:51:08;8.30;;;3.80;;
78116;SDS011;67887;59.082;37.928;2023-04-01T01:53:35;8.13;;;3.30;;
78116;SDS011;67887;59.082;37.928;2023-04-01T01:56:03;7.38;;;3.80;;
78116;SDS011;67887;59.082;37.928;2023-04-01T01:58:34;9.23;;;3.42;;
78116;SDS011;67887;59.082;37.928;2023-04-01T02:01:09;7.22;;;3.42;;
78116;SDS011;67887;59.082;37.928;2023-04-01T02:03:39;7.95;;;3.42;;
78116;SDS011;67887;59.082;37.928;2023-04-01T02:06:09;9.48;;;3.50;;
78116;SDS011;67887;59.082;37.928;2023-04-01T02:08:39;7.75;;;3.80;;
78116;SDS011;67887;59.082;37.928;2023-04-01T02:11:15;7.38;;;3.30;;
78116;SDS011;67887;59.082;37.928;2023-04-01T02:13:49;7.35;;;3.28;;
78116;SDS011;67887;59.082;37.928;2023-04-01T02:16:24;7.72;;;3.47;;
78116;SDS011;67887;59.082;37.928;2023-04-01T02:18:56;8.30;;;3.47;;
78116;SDS011;67887;59.082;37.928;2023-04-01T02:21:27;7.57;;;3.42;;
78116;SDS011;67887;59.082;37.928;2023-04-01T02:23:57;9.05;;;4.00;;
78116;SDS011;67887;59.082;37.928;2023-04-01T02:26:26;8.27;;;3.40;;
78116;SDS011;67887;59.082;37.928;2023-04-01T02:28:53;7.50;;;3.42;;
78116;SDS011;67887;59.082;37.928;2023-04-01T02:31:21;7.40;;;3.28;;
78116;SDS011;67887;59.082;37.928;2023-04-01T02:33:49;8.40;;;3.30;;
78116;SDS011;67887;59.082;37.928;2023-04-01T02:36:16;7.05;;;3.00;;
78116;SDS011;67887;59.082;37.928;2023-04-01T02:38:44;7.43;;;3.20;;
78116;SDS011;67887;59.082;37.928;2023-04-01T02:41:12;6.72;;;2.80;;
78116;SDS011;67887;59.082;37.928;2023-04-01T02:43:39;8.45;;;3.47;;
78116;SDS011;67887;59.082;37.928;2023-04-01T02:46:05;6.68;;;2.78;;
78116;SDS011;67887;59.082;37.928;2023-04-01T02:48:32;6.78;;;2.67;;
78116;SDS011;67887;59.082;37.928;2023-04-01T02:50:58;6.65;;;2.58;;
78116;SDS011;67887;59.082;37.928;2023-04-01T02:53:24;7.60;;;2.90;;
78116;SDS011;67887;59.082;37.928;2023-04-01T02:55:50;7.68;;;3.22;;
78116;SDS011;67887;59.082;37.928;2023-04-01T02:58:18;6.85;;;2.92;;
78116;SDS011;67887;59.082;37.928;2023-04-01T03:00:45;7.88;;;3.30;;
78116;SDS011;67887;59.082;37.928;2023-04-01T03:03:11;9.45;;;3.70;;
78116;SDS011;67887;59.082;37.928;2023-04-01T03:05:39;7.97;;;3.20;;
78116;SDS011;67887;59.082;37.928;2023-04-01T03:08:06;7.70;;;3.05;;
78116;SDS011;67887;59.082;37.928;2023-04-01T03:10:33;7.93;;;3.00;;
78116;SDS011;67887;59.082;37.928;2023-04-01T03:12:59;7.35;;;3.00;;
78116;SDS011;67887;59.082;37.928;2023-04-01T03:15:26;6.82;;;2.90;;
78116;SDS011;67887;59.082;37.928;2023-04-01T03:17:52;6.65;;;2.80;;
78116;SDS011;67887;59.082;37.928;2023-04-01T03:20:18;8.05;;;3.03;;
78116;SDS011;67887;59.082;37.928;2023-04-01T03:22:46;7.20;;;3.08;;
78116;SDS011;67887;59.082;37.928;2023-04-01T03:25:12;7.68;;;3.67;;
78116;SDS011;67887;59.082;37.928;2023-04-01T03:27:39;7.25;;;3.17;;
78116;SDS011;67887;59.082;37.928;2023-04-01T03:30:07;7.97;;;3.03;;
78116;SDS011;67887;59.082;37.928;2023-04-01T03:32:40;7.60;;;3.08;;
78116;SDS011;67887;59.082;37.928;2023-04-01T03:35:06;6.35;;;2.90;;
78116;SDS011;67887;59.082;37.928;2023-04-01T03:37:33;7.15;;;3.08;;
78116;SDS011;67887;59.082;37.928;2023-04-01T03:39:59;6.55;;;2.55;;
78116;SDS011;67887;59.082;37.928;2023-04-01T03:42:25;7.65;;;2.95;;
78116;SDS011;67887;59.082;37.928;2023-04-01T03:44:51;7.32;;;3.00;;
78116;SDS011;67887;59.082;37.928;2023-04-01T03:47:18;7.18;;;2.50;;
78116;SDS011;67887;59.082;37.928;2023-04-01T03:49:44;6.47;;;2.63;;
78116;SDS011;67887;59.082;37.928;2023-04-01T03:52:11;5.80;;;2.58;;
78116;SDS011;67887;59.082;37.928;2023-04-01T03:54:38;5.72;;;2.47;;
78116;SDS011;67887;59.082;37.928;2023-04-01T03:57:04;6.65;;;2.60;;
78116;SDS011;67887;59.082;37.928;2023-04-01T03:59:32;6.35;;;2.53;;
78116;SDS011;67887;59.082;37.928;2023-04-01T04:01:59;6.05;;;2.60;;
78116;SDS011;67887;59.082;37.928;2023-04-01T04:04:26;6.05;;;2.40;;
78116;SDS011;67887;59.082;37.928;2023-04-01T04:06:54;5.85;;;2.45;;
78116;SDS011;67887;59.082;37.928;2023-04-01T04:09:22;6.32;;;2.13;;
78116;SDS011;67887;59.082;37.928;2023-04-01T04:11:49;6.13;;;2.47;;
78116;SDS011;67887;59.082;37.928;2023-04-01T04:14:16;5.65;;;2.22;;
78116;SDS011;67887;59.082;37.928;2023-04-01T04:16:43;5.70;;;2.35;;
78116;SDS011;67887;59.082;37.928;2023-04-01T04:19:09;6.07;;;2.28;;
78116;SDS011;67887;59.082;37.928;2023-04-01T04:21:36;5.30;;;2.42;;
78116;SDS011;67887;59.082;37.928;2023-04-01T04:24:02;5.97;;;2.25;;
78116;SDS011;67887;59.082;37.928;2023-04-01T04:26:49;5.25;;;2.13;;
78116;SDS011;67887;59.082;37.928;2023-04-01T04:29:16;5.70;;;2.28;;
78116;SDS011;67887;59.082;37.928;2023-04-01T04:31:42;5.00;;;1.90;;
78116;SDS011;67887;59.082;37.928;2023-04-01T04:34:09;7.07;;;2.20;;
78116;SDS011;67887;59.082;37.928;2023-04-01T04:36:36;5.32;;;2.45;;
78116;SDS011;67887;59.082;37.928;2023-04-01T04:39:02;6.00;;;2.30;;
78116;SDS011;67887;59.082;37.928;2023-04-01T04:41:31;5.43;;;2.10;;
78116;SDS011;67887;59.082;37.928;2023-04-01T04:43:57;7.20;;;2.42;;
78116;SDS011;67887;59.082;37.928;2023-04-01T04:46:25;5.07;;;2.22;;
78116;SDS011;67887;59.082;37.928;2023-04-01T04:48:58;5.75;;;2.17;;
78116;SDS011;67887;59.082;37.928;2023-04-01T04:51:24;4.72;;;1.77;;
78116;SDS011;67887;59.082;37.928;2023-04-01T04:53:51;4.70;;;1.98;;
78116;SDS011;67887;59.082;37.928;2023-04-01T04:56:21;6.70;;;2.60;;
78116;SDS011;67887;59.082;37.928;2023-04-01T04:58:56;5.55;;;2.10;;
78116;SDS011;67887;59.082;37.928;2023-04-01T05:01:28;6.78;;;2.35;;
78116;SDS011;67887;59.082;37.928;2023-04-01T05:03:54;10.65;;;2.22;;
78116;SDS011;67887;59.082;37.928;2023-04-01T05:06:20;5.22;;;2.10;;
78116;SDS011;67887;59.082;37.928;2023-04-01T05:08:47;6.32;;;2.20;;
78116;SDS011;67887;59.082;37.928;2023-04-01T05:11:14;5.30;;;2.00;;
78116;SDS011;67887;59.082;37.928;2023-04-01T05:13:43;5.78;;;1.92;;
78116;SDS011;67887;59.082;37.928;2023-04-01T05:16:12;5.53;;;2.15;;
78116;SDS011;67887;59.082;37.928;2023-04-01T05:18:39;5.63;;;2.10;;
78116;SDS011;67887;59.082;37.928;2023-04-01T05:21:07;4.82;;;2.08;;
78116;SDS011;67887;59.082;37.928;2023-04-01T05:23:34;4.97;;;2.20;;
78116;SDS011;67887;59.082;37.928;2023-04-01T05:26:04;5.95;;;2.40;;
78116;SDS011;67887;59.082;37.928;2023-04-01T05:28:33;5.45;;;2.33;;
78116;SDS011;67887;59.082;37.928;2023-04-01T05:31:00;5.20;;;2.05;;
78116;SDS011;67887;59.082;37.928;2023-04-01T05:33:34;5.65;;;2.60;;
78116;SDS011;67887;59.082;37.928;2023-04-01T05:36:08;5.43;;;2.15;;
78116;SDS011;67887;59.082;37.928;2023-04-01T05:38:40;7.22;;;2.78;;
78116;SDS011;67887;59.082;37.928;2023-04-01T05:41:10;5.65;;;2.25;;
78116;SDS011;67887;59.082;37.928;2023-04-01T05:43:41;5.50;;;2.40;;
78116;SDS011;67887;59.082;37.928;2023-04-01T05:46:28;5.38;;;2.20;;
78116;SDS011;67887;59.082;37.928;2023-04-01T05:49:06;8.52;;;2.20;;
78116;SDS011;67887;59.082;37.928;2023-04-01T05:51:32;5.53;;;2.17;;
78116;SDS011;67887;59.082;37.928;2023-04-01T05:53:59;5.40;;;2.20;;
78116;SDS011;67887;59.082;37.928;2023-04-01T05:56:26;9.05;;;2.38;;
78116;SDS011;67887;59.082;37.928;2023-04-01T05:58:53;5.30;;;2.20;;
78116;SDS011;67887;59.082;37.928;2023-04-01T06:01:22;8.65;;;2.25;;
78116;SDS011;67887;59.082;37.928;2023-04-01T06:03:48;7.97;;;2.25;;
78116;SDS011;67887;59.082;37.928;2023-04-01T06:06:25;5.97;;;2.30;;
78116;SDS011;67887;59.082;37.928;2023-04-01T06:08:58;7.82;;;2.03;;
78116;SDS011;67887;59.082;37.928;2023-04-01T06:14:43;7.45;;;2.50;;
78116;SDS011;67887;59.082;37.928;2023-04-01T06:31:15;8.70;;;2.70;;
78116;SDS011;67887;59.082;37.928;2023-04-01T06:33:48;6.25;;;2.10;;
78116;SDS011;67887;59.082;37.928;2023-04-01T06:51:06;7.03;;;2.08;;
78116;SDS011;67887;59.082;37.928;2023-04-01T06:54:09;5.38;;;1.90;;
78116;SDS011;67887;59.082;37.928;2023-04-01T06:57:23;7.28;;;2.42;;
78116;SDS011;67887;59.082;37.928;2023-04-01T06:59:52;5.30;;;2.10;;
78116;SDS011;67887;59.082;37.928;2023-04-01T07:02:24;5.28;;;2.00;;
78116;SDS011;67887;59.082;37.928;2023-04-01T07:04:59;5.57;;;2.13;;
78116;SDS011;67887;59.082;37.928;2023-04-01T07:10:35;9.40;;;4.22;;
78116;SDS011;67887;59.082;37.928;2023-04-01T07:16:34;5.45;;;2.22;;
78116;SDS011;67887;59.082;37.928;2023-04-01T07:19:24;6.22;;;2.15;;
78116;SDS011;67887;59.082;37.928;2023-04-01T07:25:30;5.80;;;2.08;;
78116;SDS011;67887;59.082;37.928;2023-04-01T07:28:39;4.82;;;1.73;;
78116;SDS011;67887;59.082;37.928;2023-04-01T07:39:30;9.70;;;2.20;;
78116;SDS011;67887;59.082;37.928;2023-04-01T07:42:21;5.88;;;2.20;;
78116;SDS011;67887;59.082;37.928;2023-04-01T07:48:24;5.82;;;2.08;;
78116;SDS011;67887;59.082;37.928;2023-04-01T07:51:20;4.95;;;1.95;;
78116;SDS011;67887;59.082;37.928;2023-04-01T07:54:20;5.60;;;2.10;;
78116;SDS011;67887;59.082;37.928;2023-04-01T07:57:00;4.75;;;1.73;;
78116;SDS011;67887;59.082;37.928;2023-04-01T08:08:19;4.38;;;1.55;;
78116;SDS011;67887;59.082;37.928;2023-04-01T08:13:41;4.45;;;1.75;;
78116;SDS011;67887;59.082;37.928;2023-04-01T08:22:29;4.13;;;1.80;;
78116;SDS011;67887;59.082;37.928;2023-04-01T08:25:17;5.20;;;1.52;;
78116;SDS011;67887;59.082;37.928;2023-04-01T08:27:55;10.57;;;1.70;;
78116;SDS011;67887;59.082;37.928;2023-04-01T08:33:31;6.60;;;1.52;;
78116;SDS011;67887;59.082;37.928;2023-04-01T08:36:10;7.97;;;2.10;;
78116;SDS011;67887;59.082;37.928;2023-04-01T08:38:57;5.57;;;1.70;;
78116;SDS011;67887;59.082;37.928;2023-04-01T08:48:07;4.28;;;1.50;;
78116;SDS011;67887;59.082;37.928;2023-04-01T08:51:09;4.30;;;1.88;;
78116;SDS011;67887;59.082;37.928;2023-04-01T08:53:50;4.20;;;1.73;;
78116;SDS011;67887;59.082;37.928;2023-04-01T09:04:49;4.00;;;1.70;;
78116;SDS011;67887;59.082;37.928;2023-04-01T09:13:32;4.47;;;1.90;;
78116;SDS011;67887;59.082;37.928;2023-04-01T09:35:55;5.55;;;1.83;;
78116;SDS011;67887;59.082;37.928;2023-04-01T09:41:23;5.28;;;2.00;;
78116;SDS011;67887;59.082;37.928;2023-04-01T09:44:14;5.63;;;1.88;;
78116;SDS011;67887;59.082;37.928;2023-04-01T09:55:18;5.53;;;2.30;;
78116;SDS011;67887;59.082;37.928;2023-04-01T10:10:09;9.00;;;2.33;;
78116;SDS011;67887;59.082;37.928;2023-04-01T10:36:27;6.75;;;2.10;;
78116;SDS011;67887;59.082;37.928;2023-04-01T10:57:02;5.13;;;2.20;;
78116;SDS011;67887;59.082;37.928;2023-04-01T11:09:25;5.60;;;2.13;;
78116;SDS011;67887;59.082;37.928;2023-04-01T11:14:57;5.45;;;2.20;;
78116;SDS011;67887;59.082;37.928;2023-04-01T11:33:47;6.22;;;2.20;;
78116;SDS011;67887;59.082;37.928;2023-04-01T11:39:13;7.22;;;2.22;;
78116;SDS011;67887;59.082;37.928;2023-04-01T11:42:14;6.00;;;2.17;;
78116;SDS011;67887;59.082;37.928;2023-04-01T11:48:03;6.97;;;2.35;;
78116;SDS011;67887;59.082;37.928;2023-04-01T11:58:58;9.15;;;2.35;;
78116;SDS011;67887;59.082;37.928;2023-04-01T12:02:10;5.47;;;2.35;;
78116;SDS011;67887;59.082;37.928;2023-04-01T12:05:11;7.15;;;2.83;;
78116;SDS011;67887;59.082;37.928;2023-04-01T12:07:57;5.93;;;2.50;;
78116;SDS011;67887;59.082;37.928;2023-04-01T12:10:31;6.18;;;2.22;;
78116;SDS011;67887;59.082;37.928;2023-04-01T12:16:18;10.88;;;2.58;;
78116;SDS011;67887;59.082;37.928;2023-04-01T12:24:26;6.03;;;2.22;;
78116;SDS011;67887;59.082;37.928;2023-04-01T12:42:59;5.80;;;2.28;;
78116;SDS011;67887;59.082;37.928;2023-04-01T12:45:34;5.50;;;2.30;;
78116;SDS011;67887;59.082;37.928;2023-04-01T12:51:18;8.27;;;2.53;;
78116;SDS011;67887;59.082;37.928;2023-04-01T12:56:57;4.72;;;2.17;;
78116;SDS011;67887;59.082;37.928;2023-04-01T12:59:58;6.03;;;2.20;;
78116;SDS011;67887;59.082;37.928;2023-04-01T13:16:27;6.78;;;2.28;;
78116;SDS011;67887;59.082;37.928;2023-04-01T13:19:25;9.95;;;2.50;;
78116;SDS011;67887;59.082;37.928;2023-04-01T13:30:24;6.72;;;2.25;;
78116;SDS011;67887;59.082;37.928;2023-04-01T13:35:46;4.43;;;2.00;;
78116;SDS011;67887;59.082;37.928;2023-04-01T13:38:31;6.15;;;2.15;;
78116;SDS011;67887;59.082;37.928;2023-04-01T13:41:21;5.65;;;2.25;;
78116;SDS011;67887;59.082;37.928;2023-04-01T13:49:39;7.20;;;2.20;;
78116;SDS011;67887;59.082;37.928;2023-04-01T13:55:22;5.95;;;2.50;;
78116;SDS011;67887;59.082;37.928;2023-04-01T13:57:56;6.18;;;2.30;;
78116;SDS011;67887;59.082;37.928;2023-04-01T14:27:34;9.43;;;2.67;;
78116;SDS011;67887;59.082;37.928;2023-04-01T14:33:46;7.38;;;2.78;;
78116;SDS011;67887;59.082;37.928;2023-04-01T14:51:03;7.40;;;2.63;;
78116;SDS011;67887;59.082;37.928;2023-04-01T14:54:02;8.07;;;3.13;;
78116;SDS011;67887;59.082;37.928;2023-04-01T15:01:44;7.00;;;3.47;;
78116;SDS011;67887;59.082;37.928;2023-04-01T15:04:41;6.85;;;3.40;;
78116;SDS011;67887;59.082;37.928;2023-04-01T15:21:21;7.15;;;2.60;;
78116;SDS011;67887;59.082;37.928;2023-04-01T15:27:05;7.43;;;2.70;;
78116;SDS011;67887;59.082;37.928;2023-04-01T15:30:12;6.65;;;2.50;;
78116;SDS011;67887;59.082;37.928;2023-04-01T15:35:46;5.43;;;2.00;;
78116;SDS011;67887;59.082;37.928;2023-04-01T15:38:28;3.83;;;1.50;;
78116;SDS011;67887;59.082;37.928;2023-04-01T15:43:47;4.00;;;1.50;;
78116;SDS011;67887;59.082;37.928;2023-04-01T15:46:35;3.65;;;1.33;;
78116;SDS011;67887;59.082;37.928;2023-04-01T15:51:41;4.65;;;1.40;;
78116;SDS011;67887;59.082;37.928;2023-04-01T16:13:24;3.20;;;1.02;;
78116;SDS011;67887;59.082;37.928;2023-04-01T16:18:44;3.40;;;0.90;;
78116;SDS011;67887;59.082;37.928;2023-04-01T16:23:55;3.47;;;1.10;;
78116;SDS011;67887;59.082;37.928;2023-04-01T16:26:27;3.22;;;1.00;;
78116;SDS011;67887;59.082;37.928;2023-04-01T16:31:52;3.08;;;1.00;;
78116;SDS011;67887;59.082;37.928;2023-04-01T16:34:41;3.13;;;1.00;;
78116;SDS011;67887;59.082;37.928;2023-04-01T16:39:43;3.25;;;1.00;;
78116;SDS011;67887;59.082;37.928;2023-04-01T16:42:34;3.15;;;1.00;;
78116;SDS011;67887;59.082;37.928;2023-04-01T16:47:47;3.40;;;1.10;;
78116;SDS011;67887;59.082;37.928;2023-04-01T16:50:21;3.20;;;1.05;;
78116;SDS011;67887;59.082;37.928;2023-04-01T16:58:20;2.85;;;1.00;;
78116;SDS011;67887;59.082;37.928;2023-04-01T17:00:53;4.07;;;1.52;;
78116;SDS011;67887;59.082;37.928;2023-04-01T17:09:30;3.40;;;1.00;;
78116;SDS011;67887;59.082;37.928;2023-04-01T17:23:17;3.15;;;1.13;;
78116;SDS011;67887;59.082;37.928;2023-04-01T20:46:32;4.57;;;1.60;;
78116;SDS011;67887;59.082;37.928;2023-04-01T20:49:20;5.05;;;2.00;;
78116;SDS011;67887;59.082;37.928;2023-04-01T20:54:54;4.82;;;1.83;;
78116;SDS011;67887;59.082;37.928;2023-04-01T21:02:59;4.80;;;2.00;;
78116;SDS011;67887;59.082;37.928;2023-04-01T21:24:43;6.05;;;1.73;;
78116;SDS011;67887;59.082;37.928;2023-04-01T21:27:27;4.72;;;2.00;;
78116;SDS011;67887;59.082;37.928;2023-04-01T21:30:24;5.43;;;2.10;;
78116;SDS011;67887;59.082;37.928;2023-04-01T21:32:59;5.50;;;2.13;;
78116;SDS011;67887;59.082;37.928;2023-04-01T21:35:39;5.10;;;2.30;;
78116;SDS011;67887;59.082;37.928;2023-04-01T21:38:24;5.32;;;2.20;;
78116;SDS011;67887;59.082;37.928;2023-04-01T21:57:54;4.25;;;1.75;;
78116;SDS011;67887;59.082;37.928;2023-04-01T22:00:33;4.95;;;1.80;;
78116;SDS011;67887;59.082;37.928;2023-04-01T22:11:27;5.20;;;2.10;;
78116;SDS011;67887;59.082;37.928;2023-04-01T22:16:59;5.38;;;2.20;;
78116;SDS011;67887;59.082;37.928;2023-04-01T22:19:43;4.45;;;1.88;;
78116;SDS011;67887;59.082;37.928;2023-04-01T22:25:14;5.03;;;1.90;;
78116;SDS011;67887;59.082;37.928;2023-04-01T22:27:52;5.32;;;2.05;;
78116;SDS011;67887;59.082;37.928;2023-04-01T22:30:24;5.28;;;2.10;;
78116;SDS011;67887;59.082;37.928;2023-04-01T22:33:41;5.93;;;2.13;;
78116;SDS011;67887;59.082;37.928;2023-04-01T22:36:20;4.50;;;1.83;;
78116;SDS011;67887;59.082;37.928;2023-04-01T22:41:51;5.47;;;2.30;;
78116;SDS011;67887;59.082;37.928;2023-04-01T22:44:51;4.78;;;2.00;;
78116;SDS011;67887;59.082;37.928;2023-04-01T22:56:05;4.93;;;2.05;;
78116;SDS011;67887;59.082;37.928;2023-04-01T22:58:38;4.70;;;1.98;;
78116;SDS011;67887;59.082;37.928;2023-04-01T23:01:13;4.82;;;1.67;;
78116;SDS011;67887;59.082;37.928;2023-04-01T23:03:45;5.35;;;1.92;;
78116;SDS011;67887;59.082;37.928;2023-04-01T23:06:23;4.65;;;1.70;;
78116;SDS011;67887;59.082;37.928;2023-04-01T23:11:24;4.50;;;1.80;;
78116;SDS011;67887;59.082;37.928;2023-04-01T23:19:21;4.70;;;1.80;;
78116;SDS011;67887;59.082;37.928;2023-04-01T23:27:31;4.70;;;1.92;;
78116;SDS011;67887;59.082;37.928;2023-04-01T23:30:45;5.32;;;1.95;;
78116;SDS011;67887;59.082;37.928;2023-04-01T23:35:58;5.50;;;2.20;;
78116;SDS011;67887;59.082;37.928;2023-04-01T23:38:34;5.57;;;2.10;;
78116;SDS011;67887;59.082;37.928;2023-04-01T23:41:02;5.80;;;2.28;;
78116;SDS011;67887;59.082;37.928;2023-04-01T23:43:31;4.72;;;2.10;;
78116;SDS011;67887;59.082;37.928;2023-04-01T23:46:02;4.97;;;2.20;;
78116;SDS011;67887;59.082;37.928;2023-04-01T23:48:35;4.70;;;2.20;;
78116;SDS011;67887;59.082;37.928;2023-04-01T23:51:05;5.35;;;2.22;;
78116;SDS011;67887;59.082;37.928;2023-04-01T23:53:41;4.78;;;2.10;;
78116;SDS011;67887;59.082;37.928;2023-04-01T23:56:11;5.32;;;2.20;;
